createdAt,value
2018-12-20T00:00:46.407Z,977.98
2018-12-20T00:01:47.140Z,977.99
2018-12-20T00:02:47.140Z,977.97
2018-12-20T00:03:46.158Z,977.98
2018-12-20T00:04:46.081Z,977.99
2018-12-20T00:05:46.642Z,977.97
2018-12-20T00:06:46.646Z,977.96
2018-12-20T00:07:46.724Z,977.94
2018-12-20T00:08:46.696Z,977.97
2018-12-20T00:09:45.706Z,977.97
2018-12-20T00:10:45.572Z,977.97
2018-12-20T00:11:45.634Z,977.95
2018-12-20T00:12:46.200Z,977.96
2018-12-20T00:13:45.270Z,977.96
2018-12-20T00:14:45.180Z,977.96
2018-12-20T00:15:45.232Z,977.97
2018-12-20T00:16:45.041Z,977.97
2018-12-20T00:17:44.971Z,977.98
2018-12-20T00:18:44.777Z,977.98
2018-12-20T00:19:44.747Z,977.96
2018-12-20T00:20:44.714Z,977.98
2018-12-20T00:21:45.146Z,977.96
2018-12-20T00:22:44.608Z,977.95
2018-12-20T00:23:44.526Z,977.94
2018-12-20T00:24:45.161Z,977.97
2018-12-20T00:25:44.238Z,977.93
2018-12-20T00:26:44.698Z,977.92
2018-12-20T00:27:44.665Z,977.91
2018-12-20T00:28:43.959Z,977.88
2018-12-20T00:29:44.041Z,977.91
2018-12-20T00:30:43.856Z,977.87
2018-12-20T00:31:43.707Z,977.86
2018-12-20T00:32:43.737Z,977.90
2018-12-20T00:33:43.727Z,977.90
2018-12-20T00:34:43.474Z,977.90
2018-12-20T00:35:43.353Z,977.96
2018-12-20T00:36:43.299Z,977.93
2018-12-20T00:37:43.210Z,977.93
2018-12-20T00:38:43.152Z,977.95
2018-12-20T00:39:42.993Z,977.92
2018-12-20T00:40:43.650Z,977.96
2018-12-20T00:41:42.826Z,977.93
2018-12-20T00:42:42.735Z,977.91
2018-12-20T00:43:42.755Z,977.95
2018-12-20T00:44:42.584Z,977.97
2018-12-20T00:45:42.587Z,977.94
2018-12-20T00:46:43.298Z,977.99
2018-12-20T00:47:42.380Z,977.99
2018-12-20T00:48:42.339Z,978.05
2018-12-20T00:49:42.209Z,978.03
2018-12-20T00:50:42.043Z,978.08
2018-12-20T00:51:42.005Z,978.08
2018-12-20T00:52:41.865Z,978.08
2018-12-20T00:53:41.775Z,978.11
2018-12-20T00:54:41.689Z,978.11
2018-12-20T00:55:41.707Z,978.09
2018-12-20T00:56:41.649Z,978.10
2018-12-20T00:57:41.525Z,978.13
2018-12-20T00:58:41.468Z,978.12
2018-12-20T00:59:42.152Z,978.13
2018-12-20T01:00:41.160Z,978.12
2018-12-20T01:01:41.146Z,978.16
2018-12-20T01:02:40.934Z,978.18
2018-12-20T01:03:42.680Z,978.22
2018-12-20T01:04:40.832Z,978.23
2018-12-20T01:05:40.753Z,978.23
2018-12-20T01:06:41.243Z,978.24
2018-12-20T01:07:40.552Z,978.27
2018-12-20T01:08:40.459Z,978.27
2018-12-20T01:09:40.374Z,978.27
2018-12-20T01:10:40.290Z,978.23
2018-12-20T01:11:40.207Z,978.22
2018-12-20T01:12:40.117Z,978.24
2018-12-20T01:13:40.273Z,978.23
2018-12-20T01:14:45.327Z,978.27
2018-12-20T01:15:39.976Z,978.26
2018-12-20T01:16:40.791Z,978.29
2018-12-20T01:17:39.784Z,978.29
2018-12-20T01:18:39.622Z,978.30
2018-12-20T01:19:40.156Z,978.28
2018-12-20T01:20:39.519Z,978.32
2018-12-20T01:21:39.340Z,978.32
2018-12-20T01:22:39.251Z,978.37
2018-12-20T01:23:39.165Z,978.34
2018-12-20T01:24:39.295Z,978.38
2018-12-20T01:25:39.083Z,978.40
2018-12-20T01:26:38.892Z,978.39
2018-12-20T01:27:38.841Z,978.44
2018-12-20T01:28:38.841Z,978.47
2018-12-20T01:29:39.161Z,978.52
2018-12-20T01:30:38.573Z,978.50
2018-12-20T01:31:38.517Z,978.51
2018-12-20T01:32:39.315Z,978.49
2018-12-20T01:33:38.306Z,978.45
2018-12-20T01:34:38.299Z,978.52
2018-12-20T01:35:38.139Z,978.48
2018-12-20T01:36:38.011Z,978.46
2018-12-20T01:37:37.931Z,978.44
2018-12-20T01:38:37.864Z,978.44
2018-12-20T01:39:38.760Z,978.43
2018-12-20T01:40:38.658Z,978.46
2018-12-20T01:41:37.733Z,978.43
2018-12-20T01:42:37.491Z,978.41
2018-12-20T01:43:37.453Z,978.45
2018-12-20T01:44:38.159Z,978.42
2018-12-20T01:45:37.344Z,978.45
2018-12-20T01:46:37.137Z,978.45
2018-12-20T01:47:37.127Z,978.46
2018-12-20T01:48:37.833Z,978.44
2018-12-20T01:49:36.841Z,978.47
2018-12-20T01:50:36.832Z,978.50
2018-12-20T01:51:36.724Z,978.42
2018-12-20T01:52:36.639Z,978.48
2018-12-20T01:53:36.497Z,978.47
2018-12-20T01:54:36.467Z,978.44
2018-12-20T01:55:36.483Z,978.47
2018-12-20T01:56:37.161Z,978.48
2018-12-20T01:57:38.187Z,978.44
2018-12-20T01:58:36.251Z,978.46
2018-12-20T01:59:36.842Z,978.44
2018-12-20T02:00:35.913Z,978.44
2018-12-20T02:01:35.825Z,978.47
2018-12-20T02:02:35.765Z,978.43
2018-12-20T02:03:36.382Z,978.42
2018-12-20T02:04:35.563Z,978.42
2018-12-20T02:05:35.690Z,978.43
2018-12-20T02:06:36.167Z,978.45
2018-12-20T02:07:35.307Z,978.45
2018-12-20T02:08:35.219Z,978.41
2018-12-20T02:09:35.665Z,978.44
2018-12-20T02:10:35.143Z,978.47
2018-12-20T02:11:34.996Z,978.43
2018-12-20T02:12:34.862Z,978.47
2018-12-20T02:13:34.786Z,978.45
2018-12-20T02:14:34.693Z,978.46
2018-12-20T02:15:34.637Z,978.45
2018-12-20T02:16:34.540Z,978.45
2018-12-20T02:17:34.440Z,978.43
2018-12-20T02:18:36.253Z,978.47
2018-12-20T02:19:34.256Z,978.45
2018-12-20T02:20:34.172Z,978.42
2018-12-20T02:21:34.147Z,978.46
2018-12-20T02:22:34.050Z,978.46
2018-12-20T02:23:34.024Z,978.48
2018-12-20T02:24:35.784Z,978.49
2018-12-20T02:25:33.729Z,978.46
2018-12-20T02:26:33.659Z,978.49
2018-12-20T02:27:33.709Z,978.49
2018-12-20T02:28:33.484Z,978.49
2018-12-20T02:29:33.384Z,978.51
2018-12-20T02:30:33.296Z,978.45
2018-12-20T02:31:34.211Z,978.50
2018-12-20T02:32:33.117Z,978.53
2018-12-20T02:33:33.032Z,978.52
2018-12-20T02:34:32.981Z,978.54
2018-12-20T02:35:32.980Z,978.52
2018-12-20T02:36:32.909Z,978.50
2018-12-20T02:37:32.845Z,978.45
2018-12-20T02:38:32.620Z,978.50
2018-12-20T02:39:33.398Z,978.49
2018-12-20T02:40:32.473Z,978.48
2018-12-20T02:41:32.448Z,978.45
2018-12-20T02:42:33.382Z,978.48
2018-12-20T02:43:32.406Z,978.52
2018-12-20T02:44:32.075Z,978.51
2018-12-20T02:45:32.700Z,978.52
2018-12-20T02:46:32.668Z,978.49
2018-12-20T02:47:32.675Z,978.52
2018-12-20T02:48:31.726Z,978.48
2018-12-20T02:49:32.335Z,978.46
2018-12-20T02:50:31.545Z,978.48
2018-12-20T02:51:31.452Z,978.40
2018-12-20T02:52:31.518Z,978.46
2018-12-20T02:53:32.199Z,978.46
2018-12-20T02:54:31.281Z,978.43
2018-12-20T02:55:31.132Z,978.47
2018-12-20T02:56:31.047Z,978.40
2018-12-20T02:57:30.927Z,978.36
2018-12-20T02:58:31.672Z,978.35
2018-12-20T02:59:30.842Z,978.34
2018-12-20T03:00:30.834Z,978.37
2018-12-20T03:01:30.589Z,978.36
2018-12-20T03:02:30.650Z,978.38
2018-12-20T03:03:30.402Z,978.35
2018-12-20T03:04:30.319Z,978.38
2018-12-20T03:05:30.423Z,978.40
2018-12-20T03:06:30.147Z,978.38
2018-12-20T03:07:30.048Z,978.40
2018-12-20T03:08:29.972Z,978.40
2018-12-20T03:09:29.885Z,978.39
2018-12-20T03:10:29.888Z,978.37
2018-12-20T03:11:29.943Z,978.38
2018-12-20T03:12:29.752Z,978.38
2018-12-20T03:13:29.761Z,978.40
2018-12-20T03:14:29.455Z,978.39
2018-12-20T03:15:29.534Z,978.41
2018-12-20T03:16:29.279Z,978.42
2018-12-20T03:17:29.434Z,978.45
2018-12-20T03:18:29.139Z,978.41
2018-12-20T03:19:29.000Z,978.47
2018-12-20T03:20:28.946Z,978.43
2018-12-20T03:21:29.001Z,978.42
2018-12-20T03:22:28.791Z,978.43
2018-12-20T03:23:28.909Z,978.44
2018-12-20T03:24:30.318Z,978.45
2018-12-20T03:25:31.454Z,978.46
2018-12-20T03:26:28.407Z,978.41
2018-12-20T03:27:28.670Z,978.46
2018-12-20T03:28:28.375Z,978.46
2018-12-20T03:29:28.166Z,978.46
2018-12-20T03:30:28.058Z,978.49
2018-12-20T03:31:27.963Z,978.45
2018-12-20T03:32:28.684Z,978.45
2018-12-20T03:33:28.037Z,978.51
2018-12-20T03:34:27.876Z,978.46
2018-12-20T03:35:27.620Z,978.47
2018-12-20T03:36:30.176Z,978.43
2018-12-20T03:37:27.439Z,978.43
2018-12-20T03:38:27.341Z,978.39
2018-12-20T03:39:27.254Z,978.42
2018-12-20T03:40:27.171Z,978.41
2018-12-20T03:41:27.085Z,978.44
2018-12-20T03:42:27.042Z,978.45
2018-12-20T03:43:26.969Z,978.43
2018-12-20T03:44:26.945Z,978.43
2018-12-20T03:45:29.046Z,978.42
2018-12-20T03:46:26.826Z,978.41
2018-12-20T03:47:26.587Z,978.43
2018-12-20T03:48:26.468Z,978.43
2018-12-20T03:49:27.338Z,978.43
2018-12-20T03:50:27.197Z,978.42
2018-12-20T03:51:26.350Z,978.43
2018-12-20T03:52:26.315Z,978.42
2018-12-20T03:53:26.399Z,978.42
2018-12-20T03:54:26.016Z,978.43
2018-12-20T03:55:26.024Z,978.42
2018-12-20T03:56:25.766Z,978.42
2018-12-20T03:57:26.687Z,978.41
2018-12-20T03:58:25.787Z,978.48
2018-12-20T03:59:25.446Z,978.47
2018-12-20T04:00:25.468Z,978.48
2018-12-20T04:01:25.572Z,978.47
2018-12-20T04:02:25.422Z,978.47
2018-12-20T04:03:25.296Z,978.51
2018-12-20T04:04:25.176Z,978.51
2018-12-20T04:05:25.762Z,978.53
2018-12-20T04:06:25.776Z,978.50
2018-12-20T04:07:25.183Z,978.50
2018-12-20T04:08:24.702Z,978.52
2018-12-20T04:09:24.766Z,978.50
2018-12-20T04:10:24.895Z,978.51
2018-12-20T04:11:24.496Z,978.55
2018-12-20T04:12:25.180Z,978.54
2018-12-20T04:13:24.510Z,978.54
2018-12-20T04:14:24.136Z,978.55
2018-12-20T04:15:24.137Z,978.58
2018-12-20T04:16:24.012Z,978.59
2018-12-20T04:17:24.691Z,978.62
2018-12-20T04:18:23.914Z,978.63
2018-12-20T04:19:23.750Z,978.66
2018-12-20T04:20:23.671Z,978.66
2018-12-20T04:21:23.613Z,978.65
2018-12-20T04:22:23.799Z,978.67
2018-12-20T04:23:23.404Z,978.67
2018-12-20T04:24:23.566Z,978.68
2018-12-20T04:25:23.232Z,978.69
2018-12-20T04:26:23.136Z,978.68
2018-12-20T04:27:23.051Z,978.70
2018-12-20T04:28:23.691Z,978.67
2018-12-20T04:29:23.022Z,978.69
2018-12-20T04:30:22.960Z,978.70
2018-12-20T04:31:22.703Z,978.70
2018-12-20T04:32:22.611Z,978.67
2018-12-20T04:33:22.526Z,978.70
2018-12-20T04:34:23.193Z,978.70
2018-12-20T04:35:22.357Z,978.68
2018-12-20T04:36:23.360Z,978.74
2018-12-20T04:37:22.212Z,978.71
2018-12-20T04:38:22.127Z,978.74
2018-12-20T04:39:22.107Z,978.73
2018-12-20T04:40:21.998Z,978.71
2018-12-20T04:41:21.953Z,978.75
2018-12-20T04:42:22.858Z,978.71
2018-12-20T04:43:21.656Z,978.74
2018-12-20T04:44:22.545Z,978.69
2018-12-20T04:45:22.189Z,978.71
2018-12-20T04:46:21.485Z,978.71
2018-12-20T04:47:21.415Z,978.72
2018-12-20T04:48:21.314Z,978.72
2018-12-20T04:49:21.125Z,978.76
2018-12-20T04:50:21.033Z,978.74
2018-12-20T04:51:21.103Z,978.73
2018-12-20T04:52:21.122Z,978.73
2018-12-20T04:53:20.779Z,978.74
2018-12-20T04:54:20.854Z,978.73
2018-12-20T04:55:20.836Z,978.76
2018-12-20T04:56:21.332Z,978.70
2018-12-20T04:57:20.431Z,978.76
2018-12-20T04:58:20.354Z,978.76
2018-12-20T04:59:20.259Z,978.75
2018-12-20T05:00:20.187Z,978.76
2018-12-20T05:01:20.937Z,978.74
2018-12-20T05:02:20.094Z,978.74
2018-12-20T05:03:19.955Z,978.70
2018-12-20T05:04:20.093Z,978.74
2018-12-20T05:05:19.766Z,978.75
2018-12-20T05:06:19.635Z,978.78
2018-12-20T05:07:20.379Z,978.74
2018-12-20T05:08:19.751Z,978.77
2018-12-20T05:09:19.377Z,978.78
2018-12-20T05:10:20.298Z,978.81
2018-12-20T05:11:20.340Z,978.80
2018-12-20T05:12:19.695Z,978.82
2018-12-20T05:13:19.387Z,978.83
2018-12-20T05:14:19.694Z,978.83
2018-12-20T05:15:19.797Z,978.85
2018-12-20T05:16:18.763Z,978.87
2018-12-20T05:17:18.719Z,978.88
2018-12-20T05:18:26.098Z,978.86
2018-12-20T05:20:22.603Z,978.89
2018-12-20T05:21:22.269Z,978.88
2018-12-20T05:22:22.156Z,978.86
2018-12-20T05:23:22.104Z,978.87
2018-12-20T05:24:21.993Z,978.89
2018-12-20T05:25:21.965Z,978.88
2018-12-20T05:26:22.151Z,978.89
2018-12-20T05:27:21.776Z,978.86
2018-12-20T05:28:22.449Z,978.82
2018-12-20T05:29:22.524Z,978.86
2018-12-20T05:30:22.477Z,978.87
2018-12-20T05:31:21.609Z,978.86
2018-12-20T05:32:21.985Z,978.83
2018-12-20T05:33:21.425Z,978.85
2018-12-20T05:34:21.217Z,978.83
2018-12-20T05:35:21.082Z,978.82
2018-12-20T05:36:21.176Z,978.94
2018-12-20T05:37:21.110Z,978.88
2018-12-20T05:38:21.486Z,978.93
2018-12-20T05:39:20.792Z,978.90
2018-12-20T05:40:20.858Z,978.95
2018-12-20T05:41:20.554Z,978.95
2018-12-20T05:42:20.471Z,978.99
2018-12-20T05:43:20.393Z,979.02
2018-12-20T05:44:20.422Z,978.97
2018-12-20T05:45:20.981Z,979.00
2018-12-20T05:46:20.097Z,979.01
2018-12-20T05:47:20.153Z,979.00
2018-12-20T05:48:20.060Z,978.99
2018-12-20T05:49:19.823Z,979.04
2018-12-20T05:50:20.454Z,979.08
2018-12-20T05:51:19.827Z,979.12
2018-12-20T05:52:19.606Z,979.10
2018-12-20T05:53:22.579Z,979.06
2018-12-20T05:54:19.541Z,979.07
2018-12-20T05:55:24.141Z,979.10
2018-12-20T05:56:19.399Z,979.05
2018-12-20T05:57:19.161Z,979.07
2018-12-20T05:58:19.071Z,979.07
2018-12-20T05:59:18.980Z,979.10
2018-12-20T06:00:19.214Z,979.09
2018-12-20T06:01:18.807Z,979.18
2018-12-20T06:02:19.455Z,979.12
2018-12-20T06:03:18.883Z,979.16
2018-12-20T06:04:18.537Z,979.17
2018-12-20T06:05:19.681Z,979.22
2018-12-20T06:06:18.504Z,979.21
2018-12-20T06:07:18.213Z,979.20
2018-12-20T06:08:18.192Z,979.19
2018-12-20T06:09:20.152Z,979.16
2018-12-20T06:10:18.010Z,979.22
2018-12-20T06:11:18.453Z,979.24
2018-12-20T06:12:18.111Z,979.22
2018-12-20T06:13:17.804Z,979.22
2018-12-20T06:14:17.761Z,979.27
2018-12-20T06:15:17.581Z,979.25
2018-12-20T06:16:17.650Z,979.25
2018-12-20T06:17:17.572Z,979.26
2018-12-20T06:18:17.323Z,979.26
2018-12-20T06:19:17.423Z,979.19
2018-12-20T06:20:17.358Z,979.21
2018-12-20T06:21:19.156Z,979.20
2018-12-20T06:22:17.035Z,979.24
2018-12-20T06:23:17.460Z,979.24
2018-12-20T06:24:16.788Z,979.24
2018-12-20T06:25:17.458Z,979.25
2018-12-20T06:26:16.550Z,979.22
2018-12-20T06:27:16.459Z,979.29
2018-12-20T06:28:16.380Z,979.26
2018-12-20T06:29:16.283Z,979.24
2018-12-20T06:30:16.198Z,979.28
2018-12-20T06:31:16.154Z,979.33
2018-12-20T06:32:16.021Z,979.28
2018-12-20T06:33:15.937Z,979.32
2018-12-20T06:34:15.875Z,979.34
2018-12-20T06:35:15.759Z,979.37
2018-12-20T06:36:15.716Z,979.40
2018-12-20T06:37:15.585Z,979.39
2018-12-20T06:38:15.495Z,979.40
2018-12-20T06:39:15.408Z,979.35
2018-12-20T06:40:16.413Z,979.37
2018-12-20T06:41:15.232Z,979.35
2018-12-20T06:42:15.147Z,979.36
2018-12-20T06:43:15.059Z,979.34
2018-12-20T06:44:14.970Z,979.28
2018-12-20T06:45:14.887Z,979.28
2018-12-20T06:46:21.050Z,979.29
2018-12-20T06:47:14.707Z,979.30
2018-12-20T06:48:14.620Z,979.30
2018-12-20T06:49:14.533Z,979.29
2018-12-20T06:50:14.445Z,979.32
2018-12-20T06:51:14.357Z,979.28
2018-12-20T06:52:14.272Z,979.31
2018-12-20T06:53:14.218Z,979.33
2018-12-20T06:54:14.095Z,979.29
2018-12-20T06:55:14.008Z,979.34
2018-12-20T06:56:13.921Z,979.32
2018-12-20T06:57:13.830Z,979.35
2018-12-20T06:58:13.743Z,979.38
2018-12-20T06:59:13.661Z,979.38
2018-12-20T07:00:13.571Z,979.43
2018-12-20T07:01:13.485Z,979.47
2018-12-20T07:02:13.411Z,979.47
2018-12-20T07:03:13.307Z,979.50
2018-12-20T07:04:13.220Z,979.46
2018-12-20T07:05:13.135Z,979.48
2018-12-20T07:06:13.043Z,979.44
2018-12-20T07:07:12.957Z,979.45
2018-12-20T07:08:12.878Z,979.42
2018-12-20T07:09:12.784Z,979.38
2018-12-20T07:10:12.698Z,979.41
2018-12-20T07:11:12.677Z,979.39
2018-12-20T07:12:12.589Z,979.39
2018-12-20T07:13:12.509Z,979.39
2018-12-20T07:14:12.407Z,979.45
2018-12-20T07:15:12.970Z,979.41
2018-12-20T07:16:12.336Z,979.38
2018-12-20T07:17:12.151Z,979.39
2018-12-20T07:18:12.064Z,979.38
2018-12-20T07:19:11.980Z,979.37
2018-12-20T07:20:11.886Z,979.37
2018-12-20T07:21:11.812Z,979.42
2018-12-20T07:22:12.463Z,979.39
2018-12-20T07:23:11.623Z,979.39
2018-12-20T07:24:11.536Z,979.35
2018-12-20T07:25:11.975Z,979.43
2018-12-20T07:26:11.359Z,979.42
2018-12-20T07:27:11.969Z,979.43
2018-12-20T07:28:11.186Z,979.43
2018-12-20T07:29:11.095Z,979.43
2018-12-20T07:30:10.974Z,979.46
2018-12-20T07:31:12.475Z,979.45
2018-12-20T07:32:10.834Z,979.49
2018-12-20T07:33:10.748Z,979.48
2018-12-20T07:34:10.662Z,979.52
2018-12-20T07:35:10.572Z,979.49
2018-12-20T07:36:10.486Z,979.50
2018-12-20T07:37:10.394Z,979.47
2018-12-20T07:38:10.315Z,979.48
2018-12-20T07:39:10.969Z,979.46
2018-12-20T07:40:10.139Z,979.46
2018-12-20T07:41:10.011Z,979.48
2018-12-20T07:42:09.958Z,979.50
2018-12-20T07:43:09.877Z,979.52
2018-12-20T07:44:09.794Z,979.55
2018-12-20T07:45:09.708Z,979.56
2018-12-20T07:46:09.601Z,979.57
2018-12-20T07:47:09.520Z,979.60
2018-12-20T07:48:09.448Z,979.59
2018-12-20T07:49:09.979Z,979.59
2018-12-20T07:50:09.259Z,979.59
2018-12-20T07:51:09.190Z,979.61
2018-12-20T07:52:09.091Z,979.61
2018-12-20T07:53:09.005Z,979.61
2018-12-20T07:54:09.474Z,979.65
2018-12-20T07:55:08.831Z,979.69
2018-12-20T07:56:08.731Z,979.67
2018-12-20T07:57:08.659Z,979.66
2018-12-20T07:58:08.572Z,979.66
2018-12-20T07:59:12.982Z,979.68
2018-12-20T08:00:08.399Z,979.75
2018-12-20T08:01:08.311Z,979.78
2018-12-20T08:02:08.971Z,979.74
2018-12-20T08:03:08.125Z,979.74
2018-12-20T08:04:08.038Z,979.73
2018-12-20T08:05:07.953Z,979.74
2018-12-20T08:06:08.475Z,979.74
2018-12-20T08:07:07.779Z,979.76
2018-12-20T08:08:08.475Z,979.77
2018-12-20T08:09:07.649Z,979.82
2018-12-20T08:10:07.510Z,979.78
2018-12-20T08:11:07.424Z,979.78
2018-12-20T08:12:07.981Z,979.82
2018-12-20T08:13:07.986Z,979.83
2018-12-20T08:14:07.169Z,979.82
2018-12-20T08:15:07.185Z,979.78
2018-12-20T08:16:06.994Z,979.82
2018-12-20T08:17:06.902Z,979.82
2018-12-20T08:18:07.481Z,979.85
2018-12-20T08:19:07.467Z,979.81
2018-12-20T08:20:06.636Z,979.78
2018-12-20T08:21:07.478Z,979.76
2018-12-20T08:22:06.471Z,979.73
2018-12-20T08:23:06.381Z,979.75
2018-12-20T08:24:06.292Z,979.76
2018-12-20T08:25:06.978Z,979.74
2018-12-20T08:26:06.123Z,979.73
2018-12-20T08:27:06.035Z,979.73
2018-12-20T08:28:06.439Z,979.71
2018-12-20T08:29:06.481Z,979.80
2018-12-20T08:30:05.769Z,979.75
2018-12-20T08:31:05.687Z,979.71
2018-12-20T08:32:05.608Z,979.76
2018-12-20T08:33:05.461Z,979.75
2018-12-20T08:34:06.015Z,979.76
2018-12-20T08:35:05.334Z,979.74
2018-12-20T08:36:05.255Z,979.82
2018-12-20T08:37:05.158Z,979.79
2018-12-20T08:38:05.074Z,979.80
2018-12-20T08:39:04.993Z,979.73
2018-12-20T08:40:04.826Z,979.75
2018-12-20T08:41:04.744Z,979.76
2018-12-20T08:42:04.654Z,979.76
2018-12-20T08:43:04.566Z,979.83
2018-12-20T08:44:04.478Z,979.83
2018-12-20T08:45:04.393Z,979.84
2018-12-20T08:46:04.302Z,979.83
2018-12-20T08:47:04.217Z,979.80
2018-12-20T08:48:04.130Z,979.83
2018-12-20T08:49:04.043Z,979.86
2018-12-20T08:50:03.957Z,979.82
2018-12-20T08:51:03.869Z,979.86
2018-12-20T08:52:03.781Z,979.88
2018-12-20T08:53:03.705Z,979.82
2018-12-20T08:54:03.606Z,979.80
2018-12-20T08:55:03.524Z,979.83
2018-12-20T08:56:03.433Z,979.88
2018-12-20T08:57:04.433Z,979.91
2018-12-20T08:58:03.258Z,979.88
2018-12-20T08:59:03.170Z,979.93
2018-12-20T09:00:03.083Z,979.95
2018-12-20T09:01:03.000Z,979.99
2018-12-20T09:02:02.909Z,980.02
2018-12-20T09:03:02.822Z,979.97
2018-12-20T09:04:02.734Z,980.00
2018-12-20T09:05:03.075Z,980.02
2018-12-20T09:06:02.563Z,980.03
2018-12-20T09:07:02.473Z,980.07
2018-12-20T09:08:02.390Z,980.07
2018-12-20T09:09:02.305Z,980.18
2018-12-20T09:10:02.214Z,980.14
2018-12-20T09:11:02.130Z,980.15
2018-12-20T09:12:02.046Z,980.11
2018-12-20T09:13:09.318Z,980.14
2018-12-20T09:14:01.867Z,980.14
2018-12-20T09:15:01.782Z,980.12
2018-12-20T09:16:01.758Z,980.12
2018-12-20T09:17:03.089Z,980.14
2018-12-20T09:18:01.592Z,980.15
2018-12-20T09:19:01.431Z,980.14
2018-12-20T09:20:01.349Z,980.19
2018-12-20T09:21:01.257Z,980.20
2018-12-20T09:22:01.171Z,980.14
2018-12-20T09:23:01.084Z,980.16
2018-12-20T09:24:01.027Z,980.17
2018-12-20T09:25:00.910Z,980.19
2018-12-20T09:26:00.822Z,980.17
2018-12-20T09:27:00.739Z,980.21
2018-12-20T09:28:00.652Z,980.21
2018-12-20T09:29:00.565Z,980.21
2018-12-20T09:30:00.477Z,980.22
2018-12-20T09:31:00.387Z,980.24
2018-12-20T09:32:00.303Z,980.23
2018-12-20T09:33:00.220Z,980.19
2018-12-20T09:34:00.130Z,980.18
2018-12-20T09:35:00.044Z,980.20
2018-12-20T09:35:59.954Z,980.22
2018-12-20T09:36:59.868Z,980.23
2018-12-20T09:38:01.056Z,980.19
2018-12-20T09:38:59.692Z,980.15
2018-12-20T09:39:59.612Z,980.13
2018-12-20T09:40:59.520Z,980.10
2018-12-20T09:41:59.436Z,980.09
2018-12-20T09:42:59.349Z,980.06
2018-12-20T09:43:59.259Z,980.12
2018-12-20T09:44:59.175Z,980.10
2018-12-20T09:45:59.085Z,980.08
2018-12-20T09:46:59.000Z,980.17
2018-12-20T09:47:58.993Z,980.17
2018-12-20T09:48:58.828Z,980.20
2018-12-20T09:49:58.743Z,980.19
2018-12-20T09:50:58.651Z,980.16
2018-12-20T09:51:58.563Z,980.19
2018-12-20T09:52:58.496Z,980.17
2018-12-20T09:53:58.389Z,980.17
2018-12-20T09:54:58.302Z,980.21
2018-12-20T09:55:58.220Z,980.18
2018-12-20T09:56:58.132Z,980.19
2018-12-20T09:57:58.051Z,980.16
2018-12-20T09:58:57.955Z,980.18
2018-12-20T09:59:57.874Z,980.17
2018-12-20T10:00:57.831Z,980.17
2018-12-20T10:01:57.753Z,980.19
2018-12-20T10:02:57.613Z,980.17
2018-12-20T10:03:57.523Z,980.18
2018-12-20T10:04:57.442Z,980.17
2018-12-20T10:05:57.419Z,980.16
2018-12-20T10:06:57.269Z,980.16
2018-12-20T10:07:57.173Z,980.19
2018-12-20T10:08:57.096Z,980.20
2018-12-20T10:09:57.004Z,980.19
2018-12-20T10:10:56.914Z,980.21
2018-12-20T10:11:56.828Z,980.24
2018-12-20T10:12:56.744Z,980.21
2018-12-20T10:13:56.728Z,980.20
2018-12-20T10:14:56.568Z,980.22
2018-12-20T10:15:56.481Z,980.18
2018-12-20T10:16:56.468Z,980.17
2018-12-20T10:17:56.308Z,980.16
2018-12-20T10:18:56.221Z,980.14
2018-12-20T10:19:56.145Z,980.14
2018-12-20T10:20:56.069Z,980.12
2018-12-20T10:21:56.037Z,980.15
2018-12-20T10:22:55.873Z,980.13
2018-12-20T10:23:55.787Z,980.13
2018-12-20T10:24:55.702Z,980.11
2018-12-20T10:25:55.614Z,980.13
2018-12-20T10:26:55.533Z,980.11
2018-12-20T10:27:55.446Z,980.13
2018-12-20T10:28:55.359Z,980.15
2018-12-20T10:29:55.300Z,980.14
2018-12-20T10:30:55.181Z,980.12
2018-12-20T10:31:55.096Z,980.11
2018-12-20T10:32:55.047Z,980.13
2018-12-20T10:33:54.925Z,980.12
2018-12-20T10:34:54.837Z,980.11
2018-12-20T10:35:54.763Z,980.13
2018-12-20T10:36:54.668Z,980.11
2018-12-20T10:37:54.580Z,980.11
2018-12-20T10:38:54.507Z,980.09
2018-12-20T10:39:54.404Z,980.10
2018-12-20T10:40:54.318Z,980.10
2018-12-20T10:41:54.233Z,980.07
2018-12-20T10:42:54.148Z,980.07
2018-12-20T10:43:54.062Z,980.04
2018-12-20T10:44:53.974Z,980.07
2018-12-20T10:45:53.888Z,980.08
2018-12-20T10:46:53.801Z,980.06
2018-12-20T10:47:53.716Z,980.07
2018-12-20T10:48:53.627Z,980.02
2018-12-20T10:49:53.537Z,980.01
2018-12-20T10:50:53.456Z,980.02
2018-12-20T10:51:53.367Z,980.01
2018-12-20T10:52:53.284Z,979.99
2018-12-20T10:53:53.197Z,980.01
2018-12-20T10:54:53.110Z,980.01
2018-12-20T10:55:53.023Z,980.02
2018-12-20T10:56:52.937Z,980.01
2018-12-20T10:57:52.850Z,980.02
2018-12-20T10:58:52.763Z,980.01
2018-12-20T10:59:52.682Z,979.99
2018-12-20T11:00:52.597Z,979.95
2018-12-20T11:01:52.510Z,979.95
2018-12-20T11:02:52.417Z,980.00
2018-12-20T11:03:52.332Z,979.96
2018-12-20T11:04:52.288Z,979.95
2018-12-20T11:05:52.159Z,979.97
2018-12-20T11:06:52.076Z,979.96
2018-12-20T11:07:51.987Z,979.95
2018-12-20T11:08:51.912Z,979.99
2018-12-20T11:09:51.813Z,979.98
2018-12-20T11:10:51.729Z,979.90
2018-12-20T11:11:51.641Z,979.94
2018-12-20T11:12:51.561Z,979.98
2018-12-20T11:13:51.473Z,979.97
2018-12-20T11:14:51.382Z,979.96
2018-12-20T11:15:51.297Z,979.95
2018-12-20T11:16:51.232Z,979.93
2018-12-20T11:17:51.149Z,979.93
2018-12-20T11:18:58.741Z,979.93
2018-12-20T11:20:54.921Z,979.86
2018-12-20T11:21:54.745Z,979.90
2018-12-20T11:23:58.713Z,979.93
2018-12-20T11:24:58.529Z,979.96
2018-12-20T11:27:02.362Z,979.91
2018-12-20T11:28:02.262Z,979.88
2018-12-20T11:29:55.480Z,979.89
2018-12-20T11:30:55.410Z,979.85
2018-12-20T11:31:55.320Z,979.80
2018-12-20T11:32:56.110Z,979.81
2018-12-20T11:33:55.146Z,979.85
2018-12-20T11:34:55.716Z,979.86
2018-12-20T11:36:02.156Z,979.82
2018-12-20T11:37:58.795Z,979.80
2018-12-20T11:38:58.690Z,979.82
2018-12-20T11:41:04.563Z,979.80
2018-12-20T11:42:02.452Z,979.81
2018-12-20T11:43:02.317Z,979.80
2018-12-20T11:44:02.249Z,979.78
2018-12-20T11:45:02.156Z,979.79
2018-12-20T11:46:02.060Z,979.82
2018-12-20T11:47:01.979Z,979.82
2018-12-20T11:48:01.849Z,979.82
2018-12-20T11:49:01.813Z,979.82
2018-12-20T11:50:01.729Z,979.77
2018-12-20T11:51:01.636Z,979.72
2018-12-20T11:52:02.052Z,979.68
2018-12-20T11:53:01.470Z,979.69
2018-12-20T11:54:01.375Z,979.65
2018-12-20T11:55:01.242Z,979.70
2018-12-20T11:56:01.210Z,979.78
2018-12-20T11:57:01.119Z,979.73
2018-12-20T11:58:01.555Z,979.75
2018-12-20T11:59:01.549Z,979.78
2018-12-20T12:00:00.865Z,979.79
2018-12-20T12:01:00.740Z,979.79
2018-12-20T12:02:00.694Z,979.74
2018-12-20T12:03:00.616Z,979.77
2018-12-20T12:04:00.516Z,979.78
2018-12-20T12:05:00.438Z,979.83
2018-12-20T12:06:00.353Z,979.80
2018-12-20T12:07:00.266Z,979.88
2018-12-20T12:08:00.176Z,979.79
2018-12-20T12:09:02.066Z,979.86
2018-12-20T12:09:59.943Z,979.82
2018-12-20T12:10:59.851Z,979.76
2018-12-20T12:11:59.765Z,979.81
2018-12-20T12:12:59.686Z,979.80
2018-12-20T12:13:59.594Z,979.79
2018-12-20T12:14:59.511Z,979.77
2018-12-20T12:15:59.425Z,979.77
2018-12-20T12:16:59.407Z,979.77
2018-12-20T12:17:59.257Z,979.78
2018-12-20T12:18:59.168Z,979.76
2018-12-20T12:19:59.083Z,979.71
2018-12-20T12:20:58.997Z,979.71
2018-12-20T12:21:58.909Z,979.70
2018-12-20T12:22:58.823Z,979.70
2018-12-20T12:23:58.740Z,979.69
2018-12-20T12:24:58.663Z,979.68
2018-12-20T12:25:58.566Z,979.73
2018-12-20T12:26:58.486Z,979.76
2018-12-20T12:27:58.395Z,979.69
2018-12-20T12:28:58.310Z,979.68
2018-12-20T12:29:58.222Z,979.70
2018-12-20T12:30:58.140Z,979.69
2018-12-20T12:31:58.051Z,979.64
2018-12-20T12:32:57.965Z,979.65
2018-12-20T12:33:57.884Z,979.64
2018-12-20T12:34:57.795Z,979.62